createdAt,value
2018-07-22T00:00:05.735Z,27.94
2018-07-22T00:02:43.843Z,27.94
2018-07-22T00:05:22.890Z,27.78
2018-07-22T00:08:01.330Z,27.69
2018-07-22T00:10:39.684Z,27.77
2018-07-22T00:13:18.169Z,27.79
2018-07-22T00:15:56.832Z,27.84
2018-07-22T00:18:35.537Z,27.80
2018-07-22T00:21:14.001Z,27.83
2018-07-22T00:23:52.423Z,27.75
2018-07-22T00:26:29.305Z,27.65
2018-07-22T00:29:10.435Z,27.62
2018-07-22T00:31:48.140Z,27.60
2018-07-22T00:34:26.270Z,27.62
2018-07-22T00:37:04.654Z,27.59
2018-07-22T00:39:42.738Z,27.67
2018-07-22T00:42:21.142Z,27.63
2018-07-22T00:44:59.227Z,27.63
2018-07-22T00:47:37.662Z,27.67
2018-07-22T00:50:15.773Z,27.77
2018-07-22T00:52:54.418Z,27.75
2018-07-22T00:55:32.760Z,27.70
2018-07-22T00:58:10.640Z,27.65
2018-07-22T01:00:48.372Z,27.61
2018-07-22T01:03:27.442Z,27.58
2018-07-22T01:06:05.644Z,27.65
2018-07-22T01:08:44.571Z,27.65
2018-07-22T01:11:23.044Z,27.60
2018-07-22T01:14:01.444Z,27.52
2018-07-22T01:16:40.414Z,27.51
2018-07-22T01:19:18.767Z,27.50
2018-07-22T01:21:56.649Z,27.46
2018-07-22T01:24:35.612Z,27.43
2018-07-22T01:27:14.569Z,27.53
2018-07-22T01:29:52.337Z,27.53
2018-07-22T01:32:31.306Z,27.50
2018-07-22T01:35:10.269Z,27.39
2018-07-22T01:37:48.175Z,27.46
2018-07-22T01:40:26.500Z,27.44
2018-07-22T01:43:05.027Z,27.47
2018-07-22T01:45:43.059Z,27.45
2018-07-22T01:48:24.671Z,27.46
2018-07-22T01:51:02.500Z,27.43
2018-07-22T01:53:40.261Z,27.51
2018-07-22T01:56:19.388Z,27.55
2018-07-22T01:58:56.631Z,27.47
2018-07-22T02:01:35.789Z,27.48
2018-07-22T02:04:14.805Z,27.60
2018-07-22T02:06:53.574Z,27.72
2018-07-22T02:09:32.152Z,27.69
2018-07-22T02:12:10.660Z,27.73
2018-07-22T02:14:49.446Z,27.81
2018-07-22T02:17:27.555Z,27.88
2018-07-22T02:20:05.419Z,27.89
2018-07-22T02:22:44.018Z,27.94
2018-07-22T02:25:22.097Z,27.99
2018-07-22T02:28:00.871Z,27.86
2018-07-22T02:30:39.194Z,27.71
2018-07-22T02:33:17.196Z,27.84
2018-07-22T02:35:55.910Z,27.79
2018-07-22T02:38:33.293Z,27.88
2018-07-22T02:41:11.774Z,27.75
2018-07-22T02:43:50.008Z,27.81
2018-07-22T02:46:28.656Z,27.92
2018-07-22T02:49:07.707Z,27.89
2018-07-22T02:51:53.639Z,27.93
2018-07-22T02:57:19.887Z,28.24
2018-07-22T02:59:59.290Z,28.23
2018-07-22T03:02:37.602Z,28.21
2018-07-22T03:05:20.693Z,28.36
2018-07-22T03:07:59.203Z,28.31
2018-07-22T03:10:38.514Z,28.33
2018-07-22T03:13:19.841Z,28.18
2018-07-22T03:15:58.267Z,28.07
2018-07-22T03:18:38.250Z,28.11
2018-07-22T03:21:17.030Z,28.09
2018-07-22T03:23:55.334Z,28.02
2018-07-22T03:26:35.703Z,28.07
2018-07-22T03:29:16.018Z,28.10
2018-07-22T03:31:54.451Z,28.06
2018-07-22T03:34:37.001Z,27.83
2018-07-22T03:37:32.064Z,27.74
2018-07-22T03:40:14.212Z,27.65
2018-07-22T03:42:53.285Z,27.56
2018-07-22T03:45:31.698Z,27.48
2018-07-22T03:48:15.856Z,27.30
2018-07-22T03:50:54.409Z,27.32
2018-07-22T03:53:37.600Z,27.40
2018-07-22T03:56:16.020Z,27.41
2018-07-22T03:58:54.094Z,27.41
2018-07-22T04:01:32.875Z,27.43
2018-07-22T04:04:10.564Z,27.49
2018-07-22T04:06:49.599Z,27.56
2018-07-22T04:09:28.326Z,27.62
2018-07-22T04:12:06.724Z,27.65
2018-07-22T04:14:44.803Z,27.71
2018-07-22T04:17:23.294Z,27.72
2018-07-22T04:20:00.677Z,27.95
2018-07-22T04:22:39.681Z,27.96
2018-07-22T04:25:17.484Z,27.89
2018-07-22T04:27:53.440Z,27.94
2018-07-22T04:30:31.767Z,27.91
2018-07-22T04:33:09.764Z,27.97
2018-07-22T04:35:48.604Z,27.98
2018-07-22T04:38:27.196Z,28.00
2018-07-22T04:41:05.605Z,28.05
2018-07-22T04:43:42.914Z,28.13
2018-07-22T04:46:23.063Z,28.10
2018-07-22T04:49:01.269Z,28.18
2018-07-22T04:51:38.600Z,28.16
2018-07-22T04:54:17.403Z,28.18
2018-07-22T04:56:55.685Z,28.37
2018-07-22T04:59:33.668Z,28.46
2018-07-22T05:02:11.559Z,28.48
2018-07-22T05:04:50.886Z,28.58
2018-07-22T05:07:28.628Z,28.62
2018-07-22T05:10:06.388Z,28.60
2018-07-22T05:12:44.844Z,28.58
2018-07-22T05:15:24.716Z,28.62
2018-07-22T05:18:03.438Z,28.57
2018-07-22T05:20:40.806Z,28.54
2018-07-22T05:23:27.085Z,28.61
2018-07-22T05:26:04.762Z,28.64
2018-07-22T05:28:42.165Z,28.62
2018-07-22T05:31:20.555Z,28.62
2018-07-22T05:33:59.276Z,28.45
2018-07-22T05:36:38.316Z,28.38
2018-07-22T05:39:17.032Z,28.40
2018-07-22T05:41:55.461Z,28.38
2018-07-22T05:44:33.830Z,28.50
2018-07-22T05:47:12.591Z,28.55
2018-07-22T05:49:50.316Z,28.62
2018-07-22T05:52:28.341Z,28.66
2018-07-22T05:55:07.037Z,28.56
2018-07-22T05:57:45.337Z,28.57
2018-07-22T06:00:24.271Z,28.43
2018-07-22T06:03:02.909Z,28.27
2018-07-22T06:05:44.261Z,28.10
2018-07-22T06:08:23.544Z,28.03
2018-07-22T06:11:02.088Z,28.18
2018-07-22T06:13:41.036Z,28.19
2018-07-22T06:16:19.548Z,28.27
2018-07-22T06:18:57.786Z,28.30
2018-07-22T06:21:35.920Z,28.21
2018-07-22T06:24:14.024Z,28.15
2018-07-22T06:26:53.056Z,28.17
2018-07-22T06:29:30.710Z,28.05
2018-07-22T06:32:09.152Z,27.99
2018-07-22T06:34:47.755Z,27.96
2018-07-22T06:37:26.273Z,27.92
2018-07-22T06:40:04.640Z,27.82
2018-07-22T06:42:43.195Z,27.75
2018-07-22T06:45:21.988Z,27.71
2018-07-22T06:48:00.153Z,27.75
2018-07-22T06:50:39.114Z,27.91
2018-07-22T06:53:16.885Z,27.95
2018-07-22T06:55:56.237Z,28.15
2018-07-22T06:58:35.282Z,28.26
2018-07-22T07:01:13.759Z,28.38
2018-07-22T07:03:52.029Z,28.19
2018-07-22T07:06:30.262Z,28.14
2018-07-22T07:09:09.725Z,28.03
2018-07-22T07:11:48.318Z,27.90
2018-07-22T07:14:26.633Z,27.84
2018-07-22T07:17:05.035Z,27.83
2018-07-22T07:19:42.933Z,27.88
2018-07-22T07:22:20.391Z,27.99
2018-07-22T07:24:58.729Z,27.97
2018-07-22T07:27:37.131Z,28.08
2018-07-22T07:30:15.202Z,28.11
2018-07-22T07:32:53.919Z,28.16
2018-07-22T07:35:32.953Z,28.28
2018-07-22T07:38:12.043Z,28.43
2018-07-22T07:40:50.455Z,28.52
2018-07-22T07:43:29.492Z,28.70
2018-07-22T07:46:07.528Z,28.80
2018-07-22T07:48:44.998Z,28.86
2018-07-22T07:51:23.251Z,28.91
2018-07-22T07:54:01.682Z,28.82
2018-07-22T07:56:40.154Z,28.64
2018-07-22T07:59:18.461Z,28.51
2018-07-22T08:01:56.565Z,28.28
2018-07-22T08:04:36.083Z,28.21
2018-07-22T08:07:15.119Z,28.06
2018-07-22T08:09:53.518Z,28.00
2018-07-22T08:12:32.648Z,28.04
2018-07-22T08:15:11.511Z,28.02
2018-07-22T08:17:49.642Z,28.05
2018-07-22T08:20:28.131Z,28.07
2018-07-22T08:23:06.261Z,28.07
2018-07-22T08:25:44.521Z,28.07
2018-07-22T08:28:28.413Z,28.12
2018-07-22T08:31:06.488Z,28.24
2018-07-22T08:33:45.837Z,28.28
2018-07-22T08:36:24.253Z,28.42
2018-07-22T08:39:02.321Z,28.37
2018-07-22T08:41:39.922Z,28.41
2018-07-22T08:44:19.118Z,28.37
2018-07-22T08:46:57.211Z,28.41
2018-07-22T08:49:35.054Z,28.43
2018-07-22T08:52:12.847Z,28.31
2018-07-22T08:54:51.863Z,28.25
2018-07-22T08:57:29.918Z,28.21
2018-07-22T09:00:08.252Z,28.25
2018-07-22T09:02:46.719Z,28.13
2018-07-22T09:05:25.184Z,28.21
2018-07-22T09:08:01.859Z,28.30
2018-07-22T09:10:37.652Z,28.24
2018-07-22T09:13:15.113Z,28.09
2018-07-22T09:15:51.087Z,28.12
2018-07-22T09:18:27.327Z,28.23
2018-07-22T09:21:03.211Z,28.25
2018-07-22T09:23:39.368Z,28.16
2018-07-22T09:26:15.396Z,28.01
2018-07-22T09:28:51.528Z,28.02
2018-07-22T09:31:27.246Z,28.09
2018-07-22T09:34:03.171Z,28.12
2018-07-22T09:36:39.520Z,28.18
2018-07-22T09:39:15.775Z,28.27
2018-07-22T09:41:51.542Z,28.35
2018-07-22T09:44:28.141Z,28.35
2018-07-22T09:47:03.981Z,28.40
2018-07-22T09:49:40.012Z,28.44
2018-07-22T09:52:15.942Z,28.33
2018-07-22T09:54:51.677Z,28.11
2018-07-22T09:57:27.687Z,28.08
2018-07-22T10:00:03.520Z,27.97
2018-07-22T10:02:39.411Z,27.90
2018-07-22T10:05:16.112Z,27.88
2018-07-22T10:07:52.034Z,27.83
2018-07-22T10:10:27.553Z,27.87
2018-07-22T10:13:03.350Z,27.90
2018-07-22T10:15:39.174Z,27.91
2018-07-22T10:18:14.832Z,27.80
2018-07-22T10:20:50.632Z,27.85
2018-07-22T10:23:26.659Z,27.81
2018-07-22T10:26:04.983Z,27.84
2018-07-22T10:28:43.421Z,27.83
2018-07-22T10:31:21.790Z,27.64
2018-07-22T10:34:00.388Z,27.57
2018-07-22T10:36:38.893Z,27.48
2018-07-22T10:39:18.080Z,27.51
2018-07-22T10:41:57.039Z,27.53
2018-07-22T10:44:35.355Z,27.74
2018-07-22T10:47:14.429Z,27.79
2018-07-22T10:49:53.760Z,27.81
2018-07-22T10:52:32.822Z,27.72
2018-07-22T10:55:10.249Z,27.86
2018-07-22T10:57:48.323Z,27.78
2018-07-22T11:00:26.996Z,27.91
2018-07-22T11:03:05.467Z,27.95
2018-07-22T11:05:43.517Z,28.00
2018-07-22T11:08:22.318Z,28.16
2018-07-22T11:11:01.288Z,28.11
2018-07-22T11:13:39.449Z,28.19
2018-07-22T11:16:18.079Z,27.99
2018-07-22T11:18:55.619Z,28.08
2018-07-22T11:21:32.639Z,28.01
2018-07-22T11:24:11.121Z,27.99
2018-07-22T11:26:49.161Z,28.03
2018-07-22T11:29:28.167Z,27.95
2018-07-22T11:32:05.582Z,27.78
2018-07-22T11:34:43.556Z,27.85
2018-07-22T11:37:22.156Z,27.74
2018-07-22T11:39:59.960Z,27.67
2018-07-22T11:42:38.254Z,27.66
2018-07-22T11:45:16.346Z,27.68
2018-07-22T11:47:54.740Z,27.67
2018-07-22T11:50:31.975Z,27.69
2018-07-22T11:53:09.918Z,27.77
2018-07-22T11:55:48.001Z,27.77
2018-07-22T11:58:26.120Z,27.76
2018-07-22T12:01:04.613Z,27.82
2018-07-22T12:03:42.240Z,27.83
2018-07-22T12:06:21.027Z,27.78
2018-07-22T12:08:59.038Z,27.79
2018-07-22T12:11:35.712Z,27.89
2018-07-22T12:14:13.914Z,27.84
2018-07-22T12:16:53.026Z,27.85
2018-07-22T12:19:30.199Z,27.84
2018-07-22T12:22:08.257Z,27.85
2018-07-22T12:24:46.379Z,27.97
2018-07-22T12:27:24.823Z,27.91
2018-07-22T12:30:02.569Z,27.85
2018-07-22T12:32:40.962Z,28.00
2018-07-22T12:35:19.365Z,27.97
2018-07-22T12:37:57.757Z,27.76
2018-07-22T12:40:35.403Z,27.80
2018-07-22T12:43:17.125Z,27.68
2018-07-22T12:45:59.944Z,27.68
2018-07-22T12:48:38.662Z,27.83
2018-07-22T12:51:17.356Z,27.73
2018-07-22T12:53:55.188Z,27.63
2018-07-22T12:56:33.197Z,27.62
2018-07-22T12:59:11.285Z,27.49
2018-07-22T13:01:50.495Z,27.63
2018-07-22T13:04:27.921Z,27.58
2018-07-22T13:07:05.689Z,27.63
2018-07-22T13:09:43.825Z,27.77
2018-07-22T13:12:22.568Z,27.64
2018-07-22T13:15:00.247Z,27.58
2018-07-22T13:17:38.718Z,27.79
2018-07-22T13:20:16.592Z,27.71
2018-07-22T13:22:53.944Z,27.75
2018-07-22T13:25:31.643Z,27.78
2018-07-22T13:28:10.086Z,27.84
2018-07-22T13:30:47.919Z,27.83
2018-07-22T13:33:27.460Z,27.77
2018-07-22T13:36:05.274Z,27.70
2018-07-22T13:38:45.993Z,27.84
2018-07-22T13:41:24.373Z,27.91
2018-07-22T13:44:02.582Z,27.93
2018-07-22T13:46:41.929Z,27.89
2018-07-22T13:49:19.770Z,27.86
2018-07-22T13:51:58.298Z,27.66
2018-07-22T13:58:14.759Z,27.78
2018-07-22T14:01:23.135Z,27.54
2018-07-22T14:06:57.094Z,27.44
2018-07-22T14:09:45.984Z,27.46
2018-07-22T14:12:52.067Z,27.61
2018-07-22T14:15:54.453Z,27.49
2018-07-22T14:18:50.390Z,27.50
2018-07-22T14:21:49.440Z,27.49
2018-07-22T14:24:45.045Z,27.46
2018-07-22T14:27:40.585Z,27.59
2018-07-22T14:30:27.018Z,27.52
2018-07-22T14:33:25.204Z,27.52
2018-07-22T14:36:23.014Z,27.48
2018-07-22T14:39:27.771Z,27.48
2018-07-22T14:42:07.188Z,27.50
2018-07-22T14:44:45.384Z,27.53
2018-07-22T14:47:22.372Z,27.51
2018-07-22T14:50:00.987Z,27.49
2018-07-22T14:52:38.211Z,27.52
2018-07-22T14:55:15.907Z,27.52
2018-07-22T14:57:58.702Z,27.53
2018-07-22T15:07:19.767Z,27.75
2018-07-22T15:09:59.369Z,27.92
2018-07-22T15:12:43.291Z,27.81
2018-07-22T15:15:24.263Z,27.78
2018-07-22T15:18:01.197Z,27.82
2018-07-22T15:20:38.331Z,27.80
2018-07-22T15:23:15.132Z,27.80
2018-07-22T15:25:53.219Z,27.89
2018-07-22T15:28:40.388Z,27.92
2018-07-22T15:31:18.399Z,27.93
2018-07-22T15:33:58.783Z,27.91
2018-07-22T15:36:37.639Z,27.89
2018-07-22T15:39:15.592Z,28.04
2018-07-22T15:41:52.810Z,27.97
2018-07-22T15:44:30.610Z,27.96
2018-07-22T15:47:07.953Z,28.14
2018-07-22T15:49:59.492Z,28.07
2018-07-22T15:52:41.642Z,28.01
2018-07-22T15:55:23.401Z,28.06
2018-07-22T15:58:08.696Z,28.07
2018-07-22T16:01:07.994Z,28.03
2018-07-22T16:03:50.346Z,27.96
2018-07-22T16:06:36.601Z,27.95
2018-07-22T16:09:23.412Z,27.93
2018-07-22T16:12:03.279Z,27.92
2018-07-22T16:29:57.266Z,27.85
2018-07-22T16:36:10.591Z,27.84
2018-07-22T16:42:39.681Z,27.88
2018-07-22T16:56:29.324Z,28.24
2018-07-22T16:59:21.441Z,28.21
2018-07-22T17:02:09.881Z,28.11
2018-07-22T17:05:01.812Z,27.99
2018-07-22T17:07:54.056Z,27.78
2018-07-22T17:14:08.463Z,27.76
2018-07-22T17:19:38.902Z,27.75
2018-07-22T17:22:34.126Z,27.52
2018-07-22T17:25:30.276Z,27.47
2018-07-22T17:31:21.092Z,27.45
2018-07-22T18:20:41.110Z,27.24
2018-07-22T19:05:53.328Z,26.59
2018-07-22T19:08:46.909Z,26.61
2018-07-22T19:11:27.134Z,26.54
2018-07-22T19:14:14.287Z,26.57
2018-07-22T19:17:00.500Z,26.51
2018-07-22T19:22:44.044Z,26.65
2018-07-22T19:25:28.450Z,26.59
2018-07-22T19:28:08.330Z,26.63
2018-07-22T19:30:47.092Z,26.61
2018-07-22T19:33:41.995Z,26.58
2018-07-22T19:39:30.134Z,26.64
2018-07-22T19:42:16.871Z,26.76
2018-07-22T19:44:58.388Z,26.74
2018-07-22T19:47:58.776Z,26.64
2018-07-22T19:50:55.072Z,26.79
2018-07-22T19:56:39.002Z,26.84
2018-07-22T20:00:40.997Z,26.83
2018-07-22T20:03:23.044Z,26.65
2018-07-22T20:06:27.758Z,26.86
2018-07-22T20:09:12.471Z,26.86
2018-07-22T20:11:55.869Z,26.78
2018-07-22T20:14:36.427Z,26.85
2018-07-22T20:20:15.673Z,26.92
2018-07-22T20:23:00.662Z,26.91
2018-07-22T20:25:40.485Z,26.92
2018-07-22T20:28:17.623Z,26.67
2018-07-22T20:30:56.013Z,26.78
2018-07-22T20:33:36.591Z,26.74
2018-07-22T20:36:30.872Z,26.69
2018-07-22T20:39:16.166Z,26.59
2018-07-22T20:42:00.350Z,26.49
2018-07-22T20:44:42.003Z,26.77
2018-07-22T20:47:24.542Z,26.72
2018-07-22T20:50:14.793Z,26.53
2018-07-22T20:53:09.995Z,26.53
2018-07-22T20:55:49.370Z,26.57
2018-07-22T20:58:33.809Z,26.55
2018-07-22T21:01:12.967Z,26.79
2018-07-22T21:03:50.569Z,26.86
2018-07-22T21:16:51.016Z,26.72
2018-07-22T21:23:23.718Z,26.53
2018-07-22T21:26:38.058Z,26.51
2018-07-22T21:32:20.944Z,26.41
2018-07-22T21:34:59.855Z,26.60
2018-07-22T21:37:44.091Z,26.43
2018-07-22T21:40:23.232Z,26.48
2018-07-22T21:43:03.787Z,26.59
2018-07-22T21:45:51.765Z,26.55
2018-07-22T21:48:43.309Z,26.42
2018-07-22T21:51:27.478Z,26.46
2018-07-22T21:54:29.842Z,26.66
2018-07-22T21:57:47.849Z,26.66
2018-07-22T22:00:44.914Z,26.79
2018-07-22T22:03:42.571Z,26.86
2018-07-22T22:15:47.485Z,26.84
2018-07-22T22:18:47.577Z,26.87
2018-07-22T22:22:00.086Z,26.82
2018-07-22T22:33:37.371Z,26.69
2018-07-22T22:36:26.658Z,26.74
2018-07-22T22:39:10.803Z,26.72
2018-07-22T22:42:05.869Z,26.63
2018-07-22T22:47:40.598Z,26.45
2018-07-22T22:50:31.013Z,26.54
2018-07-22T22:56:26.494Z,26.61
2018-07-22T23:02:28.532Z,26.64
2018-07-22T23:07:58.017Z,26.58
2018-07-22T23:10:47.474Z,26.62
2018-07-22T23:25:13.194Z,26.34
2018-07-22T23:28:13.857Z,26.37
2018-07-22T23:31:28.134Z,26.37
2018-07-22T23:34:44.093Z,26.42
2018-07-22T23:37:40.289Z,26.36
2018-07-22T23:43:44.364Z,26.38
2018-07-22T23:46:30.184Z,26.41
2018-07-22T23:52:27.466Z,26.45
2018-07-22T23:55:30.542Z,26.42
2018-07-22T23:58:37.435Z,26.45
